createdAt,value
2024-01-06T00:00:11.880Z,6.90
2024-01-06T00:02:40.709Z,5.55
2024-01-06T00:05:10.018Z,6.00
2024-01-06T00:07:37.553Z,5.70
2024-01-06T00:10:05.417Z,6.20
2024-01-06T00:12:32.887Z,6.55
2024-01-06T00:15:00.350Z,7.15
2024-01-06T00:17:27.781Z,6.78
2024-01-06T00:19:56.660Z,5.75
2024-01-06T00:22:24.472Z,5.60
2024-01-06T00:24:51.952Z,6.07
2024-01-06T00:27:19.469Z,5.43
2024-01-06T00:29:47.000Z,5.90
2024-01-06T00:32:14.416Z,5.95
2024-01-06T00:34:41.936Z,6.57
2024-01-06T00:37:10.740Z,6.50
2024-01-06T00:39:38.233Z,6.47
2024-01-06T00:42:06.299Z,6.07
2024-01-06T00:44:34.188Z,6.35
2024-01-06T00:47:01.591Z,6.57
2024-01-06T00:49:29.191Z,5.80
2024-01-06T00:51:56.787Z,7.07
2024-01-06T00:54:25.552Z,6.80
2024-01-06T00:56:55.403Z,7.05
2024-01-06T00:59:24.078Z,6.57
2024-01-06T01:01:51.550Z,5.70
2024-01-06T01:04:19.098Z,6.97
2024-01-06T01:06:46.675Z,6.53
2024-01-06T01:09:15.293Z,6.93
2024-01-06T01:11:44.245Z,7.15
2024-01-06T01:14:11.771Z,7.15
2024-01-06T01:16:39.190Z,6.13
2024-01-06T01:19:06.656Z,8.63
2024-01-06T01:21:34.199Z,6.78
2024-01-06T01:24:01.659Z,7.18
2024-01-06T01:26:29.079Z,6.63
2024-01-06T01:28:57.818Z,6.60
2024-01-06T01:31:25.670Z,6.10
2024-01-06T01:33:53.418Z,6.72
2024-01-06T01:36:20.986Z,7.75
2024-01-06T01:38:48.454Z,6.95
2024-01-06T01:41:15.948Z,6.95
2024-01-06T01:43:43.364Z,7.88
2024-01-06T01:46:12.727Z,7.22
2024-01-06T01:48:40.754Z,6.60
2024-01-06T01:51:09.911Z,6.68
2024-01-06T01:53:37.694Z,6.95
2024-01-06T01:56:06.230Z,6.60
2024-01-06T01:58:33.728Z,7.47
2024-01-06T02:01:01.696Z,7.13
2024-01-06T02:03:32.623Z,6.63
2024-01-06T02:06:00.117Z,6.82
2024-01-06T02:08:27.841Z,7.20
2024-01-06T02:10:56.820Z,7.28
2024-01-06T02:13:24.603Z,6.68
2024-01-06T02:15:54.245Z,6.97
2024-01-06T02:18:21.879Z,7.13
2024-01-06T02:20:52.100Z,7.28
2024-01-06T02:23:20.887Z,7.78
2024-01-06T02:25:48.398Z,8.05
2024-01-06T02:28:15.811Z,7.93
2024-01-06T02:30:43.385Z,6.55
2024-01-06T02:33:11.057Z,6.60
2024-01-06T02:35:38.622Z,6.55
2024-01-06T02:38:06.024Z,6.63
2024-01-06T02:40:34.756Z,6.38
2024-01-06T02:43:02.264Z,7.45
2024-01-06T02:45:29.696Z,6.25
2024-01-06T02:47:57.241Z,6.95
2024-01-06T02:50:24.729Z,7.18
2024-01-06T02:52:52.162Z,8.13
2024-01-06T02:55:19.595Z,6.95
2024-01-06T02:57:48.525Z,6.82
2024-01-06T03:00:17.202Z,7.55
2024-01-06T03:02:44.640Z,7.82
2024-01-06T03:05:12.480Z,7.72
2024-01-06T03:07:39.922Z,7.75
2024-01-06T03:10:08.006Z,8.30
2024-01-06T03:12:35.414Z,7.65
2024-01-06T03:15:04.365Z,7.03
2024-01-06T03:17:32.034Z,6.38
2024-01-06T03:19:59.745Z,7.88
2024-01-06T03:22:27.382Z,7.60
2024-01-06T03:24:54.843Z,6.63
2024-01-06T03:27:22.331Z,6.43
2024-01-06T03:29:49.761Z,6.90
2024-01-06T03:32:18.481Z,6.47
2024-01-06T03:34:46.021Z,6.20
2024-01-06T03:37:13.653Z,6.90
2024-01-06T03:39:41.121Z,7.40
2024-01-06T03:42:08.864Z,6.30
2024-01-06T03:44:36.300Z,6.90
2024-01-06T03:47:03.718Z,6.35
2024-01-06T03:49:32.526Z,6.78
2024-01-06T03:52:00.091Z,6.28
2024-01-06T03:54:27.689Z,5.78
2024-01-06T03:56:55.114Z,6.07
2024-01-06T03:59:22.530Z,6.75
2024-01-06T04:01:50.147Z,5.88
2024-01-06T04:04:17.630Z,6.45
2024-01-06T04:06:46.487Z,6.68
2024-01-06T04:09:16.287Z,6.97
2024-01-06T04:11:45.169Z,6.88
2024-01-06T04:14:12.587Z,5.80
2024-01-06T04:16:39.979Z,7.32
2024-01-06T04:19:08.808Z,5.22
2024-01-06T04:21:36.394Z,6.82
2024-01-06T04:24:05.746Z,5.88
2024-01-06T04:26:33.182Z,5.80
2024-01-06T04:29:00.803Z,6.38
2024-01-06T04:31:28.412Z,6.35
2024-01-06T04:33:56.116Z,5.13
2024-01-06T04:36:23.655Z,6.25
2024-01-06T04:38:51.169Z,5.72
2024-01-06T04:41:19.944Z,5.43
2024-01-06T04:43:47.433Z,6.95
2024-01-06T04:46:14.898Z,6.63
2024-01-06T04:48:44.814Z,5.15
2024-01-06T04:51:12.517Z,6.32
2024-01-06T04:53:40.780Z,6.18
2024-01-06T04:56:08.223Z,4.93
2024-01-06T04:58:37.005Z,5.25
2024-01-06T05:01:05.424Z,5.50
2024-01-06T05:03:33.047Z,5.75
2024-01-06T05:06:00.530Z,5.28
2024-01-06T05:08:27.951Z,6.50
2024-01-06T05:10:55.565Z,6.95
2024-01-06T05:13:22.980Z,5.93
2024-01-06T05:15:51.920Z,5.63
2024-01-06T05:18:19.700Z,5.55
2024-01-06T05:20:47.403Z,5.40
2024-01-06T05:23:14.916Z,6.47
2024-01-06T05:25:42.325Z,6.55
2024-01-06T05:28:09.752Z,6.72
2024-01-06T05:30:37.253Z,10.05
2024-01-06T05:33:06.748Z,7.22
2024-01-06T05:35:34.805Z,6.10
2024-01-06T05:38:02.454Z,6.28
2024-01-06T05:40:29.856Z,5.78
2024-01-06T05:42:58.150Z,6.38
2024-01-06T05:45:28.382Z,5.80
2024-01-06T05:47:57.638Z,6.38
2024-01-06T05:50:26.412Z,6.30
2024-01-06T05:52:53.864Z,7.60
2024-01-06T05:55:21.579Z,5.75
2024-01-06T05:57:49.048Z,5.13
2024-01-06T06:00:17.487Z,5.35
2024-01-06T06:02:44.913Z,6.22
2024-01-06T06:05:12.407Z,6.00
2024-01-06T06:07:41.292Z,5.70
2024-01-06T06:10:10.423Z,7.63
2024-01-06T06:12:38.708Z,5.82
2024-01-06T06:15:07.515Z,6.32
2024-01-06T06:17:35.245Z,6.07
2024-01-06T06:20:02.791Z,5.72
2024-01-06T06:22:32.251Z,5.82
2024-01-06T06:25:01.787Z,6.15
2024-01-06T06:27:29.501Z,5.80
2024-01-06T06:29:58.174Z,5.55
2024-01-06T06:32:26.237Z,6.88
2024-01-06T06:34:54.047Z,6.30
2024-01-06T06:37:22.007Z,5.50
2024-01-06T06:39:49.473Z,7.53
2024-01-06T06:42:18.279Z,6.43
2024-01-06T06:44:45.719Z,6.15
2024-01-06T06:47:13.172Z,6.60
2024-01-06T06:49:40.809Z,7.30
2024-01-06T06:52:08.400Z,7.82
2024-01-06T06:54:35.949Z,8.20
2024-01-06T06:57:04.188Z,7.88
2024-01-06T06:59:32.950Z,8.85
2024-01-06T07:02:00.482Z,6.50
2024-01-06T07:04:28.260Z,6.82
2024-01-06T07:06:55.775Z,7.82
2024-01-06T07:09:24.557Z,6.90
2024-01-06T07:11:52.229Z,6.53
2024-01-06T07:14:19.762Z,9.07
2024-01-06T07:16:48.541Z,7.70
2024-01-06T07:19:16.543Z,7.50
2024-01-06T07:21:44.034Z,7.40
2024-01-06T07:24:11.509Z,7.40
2024-01-06T07:26:38.958Z,7.32
2024-01-06T07:29:06.401Z,8.48
2024-01-06T07:31:34.097Z,7.88
2024-01-06T07:34:03.050Z,7.03
2024-01-06T07:36:30.530Z,7.32
2024-01-06T07:38:57.950Z,7.07
2024-01-06T07:41:25.457Z,6.63
2024-01-06T07:43:52.920Z,7.43
2024-01-06T07:46:20.925Z,7.80
2024-01-06T07:48:48.429Z,6.72
2024-01-06T07:51:18.245Z,6.65
2024-01-06T07:53:45.856Z,8.05
2024-01-06T07:56:13.513Z,7.97
2024-01-06T07:58:40.962Z,8.30
2024-01-06T08:01:08.575Z,9.23
2024-01-06T08:03:36.251Z,8.57
2024-01-06T08:06:04.487Z,8.30
2024-01-06T08:08:33.310Z,8.57
2024-01-06T08:11:00.774Z,7.05
2024-01-06T08:13:28.241Z,7.78
2024-01-06T08:15:55.826Z,8.30
2024-01-06T08:18:23.544Z,7.78
2024-01-06T08:20:51.182Z,8.38
2024-01-06T08:23:19.949Z,8.70
2024-01-06T08:25:49.029Z,9.40
2024-01-06T08:28:19.674Z,9.10
2024-01-06T08:30:47.485Z,8.00
2024-01-06T08:33:15.136Z,8.80
2024-01-06T08:35:42.676Z,9.60
2024-01-06T08:38:10.110Z,8.48
2024-01-06T08:40:37.884Z,7.90
2024-01-06T08:43:06.712Z,8.63
2024-01-06T08:45:34.116Z,7.05
2024-01-06T08:48:01.581Z,8.32
2024-01-06T08:50:29.160Z,6.70
2024-01-06T08:52:56.600Z,7.13
2024-01-06T08:55:23.992Z,6.93
2024-01-06T08:57:51.435Z,8.85
2024-01-06T09:00:20.805Z,7.90
2024-01-06T09:02:48.262Z,8.35
2024-01-06T09:05:15.982Z,9.60
2024-01-06T09:07:43.440Z,8.57
2024-01-06T09:10:11.318Z,8.00
2024-01-06T09:15:08.117Z,8.00
2024-01-06T09:17:37.001Z,9.57
2024-01-06T09:20:05.430Z,8.73
2024-01-06T09:22:33.391Z,9.70
2024-01-06T09:25:01.169Z,9.15
2024-01-06T09:27:28.690Z,9.23
2024-01-06T09:29:56.132Z,8.48
2024-01-06T09:32:25.097Z,9.38
2024-01-06T09:34:54.069Z,9.27
2024-01-06T09:37:21.831Z,8.82
2024-01-06T09:39:49.297Z,8.27
2024-01-06T09:42:16.787Z,7.85
2024-01-06T09:44:44.252Z,8.90
2024-01-06T09:47:14.378Z,8.70
2024-01-06T09:49:47.779Z,7.00
2024-01-06T09:52:17.912Z,8.73
2024-01-06T09:54:55.825Z,7.55
2024-01-06T09:57:25.277Z,7.25
2024-01-06T09:59:53.449Z,8.98
2024-01-06T10:02:23.699Z,8.68
2024-01-06T10:04:52.455Z,8.10
2024-01-06T10:07:21.261Z,8.38
2024-01-06T10:09:48.728Z,7.75
2024-01-06T10:12:16.438Z,6.70
2024-01-06T10:14:45.943Z,7.63
2024-01-06T10:17:13.880Z,7.75
2024-01-06T10:19:41.359Z,6.40
2024-01-06T10:22:08.836Z,7.93
2024-01-06T10:24:40.166Z,7.18
2024-01-06T10:27:09.901Z,6.95
2024-01-06T10:29:37.454Z,7.65
2024-01-06T10:32:06.965Z,7.45
2024-01-06T10:34:34.556Z,8.60
2024-01-06T10:37:02.252Z,6.40
2024-01-06T10:39:30.912Z,8.00
2024-01-06T10:42:00.416Z,9.02
2024-01-06T10:44:31.458Z,6.55
2024-01-06T10:47:00.627Z,8.25
2024-01-06T10:49:31.064Z,7.45
2024-01-06T10:52:00.155Z,8.38
2024-01-06T10:54:29.318Z,8.02
2024-01-06T10:57:00.684Z,7.50
2024-01-06T10:59:30.537Z,8.23
2024-01-06T11:01:59.683Z,7.15
2024-01-06T11:04:27.611Z,8.23
2024-01-06T11:06:55.901Z,7.68
2024-01-06T11:09:26.484Z,8.13
2024-01-06T11:11:55.369Z,7.32
2024-01-06T11:14:26.958Z,6.38
2024-01-06T11:16:55.713Z,8.38
2024-01-06T11:19:47.060Z,8.00
2024-01-06T11:22:22.012Z,7.18
2024-01-06T11:24:50.824Z,7.07
2024-01-06T11:27:23.774Z,7.15
2024-01-06T11:29:55.325Z,6.75
2024-01-06T11:32:28.220Z,7.82
2024-01-06T11:34:57.538Z,7.22
2024-01-06T11:37:38.345Z,7.65
2024-01-06T11:40:10.056Z,6.82
2024-01-06T11:42:37.632Z,6.90
2024-01-06T11:45:08.260Z,6.88
2024-01-06T11:47:36.467Z,6.93
2024-01-06T11:50:05.696Z,7.28
2024-01-06T11:52:33.315Z,7.10
2024-01-06T11:55:01.658Z,6.45
2024-01-06T11:57:30.604Z,6.95
2024-01-06T11:59:58.130Z,7.32
2024-01-06T12:02:27.024Z,5.93
2024-01-06T12:04:55.766Z,6.20
2024-01-06T12:07:24.568Z,6.35
2024-01-06T12:09:53.958Z,7.32
2024-01-06T12:12:21.586Z,6.63
2024-01-06T12:14:49.090Z,8.13
2024-01-06T12:17:16.562Z,7.30
2024-01-06T12:19:46.517Z,6.55
2024-01-06T12:22:15.351Z,6.88
2024-01-06T12:24:43.508Z,6.72
2024-01-06T12:27:11.997Z,6.88
2024-01-06T12:29:41.009Z,6.40
2024-01-06T12:32:09.230Z,8.52
2024-01-06T12:34:37.269Z,7.22
2024-01-06T12:37:06.218Z,9.70
2024-01-06T12:39:33.925Z,8.43
2024-01-06T12:42:03.209Z,8.55
2024-01-06T12:44:30.727Z,8.63
2024-01-06T12:46:58.279Z,8.15
2024-01-06T12:49:25.864Z,9.07
2024-01-06T12:51:53.497Z,8.20
2024-01-06T12:54:22.407Z,7.90
2024-01-06T12:56:50.892Z,7.75
2024-01-06T12:59:19.883Z,8.98
2024-01-06T13:01:47.474Z,8.23
2024-01-06T13:04:15.105Z,8.98
2024-01-06T13:06:43.455Z,8.50
2024-01-06T13:09:13.721Z,9.15
2024-01-06T13:11:42.479Z,6.40
2024-01-06T13:14:09.995Z,7.00
2024-01-06T13:16:37.558Z,6.60
2024-01-06T13:19:05.748Z,5.93
2024-01-06T13:21:33.349Z,6.38
2024-01-06T13:24:03.580Z,7.50
2024-01-06T13:26:32.954Z,6.20
2024-01-06T13:29:02.680Z,7.47
2024-01-06T13:31:30.571Z,6.35
2024-01-06T13:33:58.107Z,6.13
2024-01-06T13:36:25.713Z,7.20
2024-01-06T13:38:53.212Z,6.72
2024-01-06T13:41:20.855Z,5.97
2024-01-06T13:43:48.854Z,6.22
2024-01-06T13:46:17.734Z,6.38
2024-01-06T13:48:45.284Z,6.47
2024-01-06T13:51:12.822Z,7.05
2024-01-06T13:53:40.311Z,7.38
2024-01-06T13:56:08.264Z,7.50
2024-01-06T13:58:36.758Z,6.57
2024-01-06T14:01:04.619Z,7.68
2024-01-06T14:03:34.050Z,6.72
2024-01-06T14:06:01.731Z,8.50
2024-01-06T14:08:29.234Z,7.20
2024-01-06T14:10:56.702Z,8.88
2024-01-06T14:13:24.108Z,8.38
2024-01-06T14:15:51.682Z,7.93
2024-01-06T14:18:19.299Z,9.02
2024-01-06T14:20:49.525Z,9.70
2024-01-06T14:23:16.997Z,9.00
2024-01-06T14:25:44.503Z,7.95
2024-01-06T14:28:12.784Z,8.70
2024-01-06T14:30:40.343Z,8.73
2024-01-06T14:33:07.962Z,8.98
2024-01-06T14:35:35.418Z,8.45
2024-01-06T14:38:04.293Z,8.38
2024-01-06T14:40:31.694Z,8.38
2024-01-06T14:42:59.269Z,8.65
2024-01-06T14:45:26.801Z,8.98
2024-01-06T14:47:54.499Z,8.40
2024-01-06T14:50:21.961Z,10.52
2024-01-06T14:52:50.222Z,10.25
2024-01-06T14:55:19.112Z,11.25
2024-01-06T14:57:46.693Z,9.00
2024-01-06T15:00:14.758Z,10.80
2024-01-06T15:02:42.406Z,11.35
2024-01-06T15:05:10.770Z,12.10
2024-01-06T15:07:38.525Z,12.13
2024-01-06T15:10:10.939Z,9.25
2024-01-06T15:12:39.787Z,9.73
2024-01-06T15:15:09.458Z,9.48
2024-01-06T15:17:37.664Z,13.07
2024-01-06T15:20:06.607Z,11.77
2024-01-06T15:22:35.479Z,10.40
2024-01-06T15:25:06.753Z,12.93
2024-01-06T15:27:34.998Z,11.57
2024-01-06T15:30:07.920Z,12.38
2024-01-06T15:32:36.847Z,13.95
2024-01-06T15:35:04.904Z,12.32
2024-01-06T15:37:32.531Z,13.10
2024-01-06T15:40:00.218Z,12.85
2024-01-06T15:42:27.991Z,13.18
2024-01-06T15:44:55.557Z,13.77
2024-01-06T15:47:24.293Z,11.48
2024-01-06T15:49:52.279Z,11.32
2024-01-06T15:52:22.434Z,13.73
2024-01-06T15:54:50.614Z,12.52
2024-01-06T15:57:18.221Z,14.48
2024-01-06T15:59:46.752Z,13.18
2024-01-06T16:02:14.201Z,13.98
2024-01-06T16:04:43.030Z,13.80
2024-01-06T16:07:10.634Z,12.52
2024-01-06T16:09:38.202Z,11.88
2024-01-06T16:12:07.149Z,13.75
2024-01-06T16:14:36.228Z,14.07
2024-01-06T16:17:04.987Z,13.45
2024-01-06T16:19:32.617Z,14.25
2024-01-06T16:22:11.164Z,14.52
2024-01-06T16:24:44.821Z,14.98
2024-01-06T16:27:12.384Z,14.55
2024-01-06T16:29:40.255Z,15.30
2024-01-06T16:32:08.849Z,12.90
2024-01-06T16:34:36.971Z,14.40
2024-01-06T16:37:06.769Z,14.73
2024-01-06T16:39:34.333Z,16.02
2024-01-06T16:42:01.760Z,16.48
2024-01-06T16:44:31.609Z,14.32
2024-01-06T16:47:00.690Z,17.20
2024-01-06T16:49:29.099Z,15.82
2024-01-06T16:51:56.829Z,15.57
2024-01-06T16:54:26.346Z,14.35
2024-01-06T16:56:54.443Z,15.45
2024-01-06T16:59:21.963Z,14.95
2024-01-06T17:01:49.462Z,16.70
2024-01-06T17:04:17.762Z,17.15
2024-01-06T17:06:45.441Z,15.82
2024-01-06T17:09:13.266Z,16.83
2024-01-06T17:11:42.087Z,14.80
2024-01-06T17:14:12.785Z,14.10
2024-01-06T17:16:40.200Z,12.00
2024-01-06T17:19:08.124Z,14.10
2024-01-06T17:21:36.179Z,14.65
2024-01-06T17:24:04.226Z,14.85
2024-01-06T17:26:31.694Z,16.00
2024-01-06T17:29:00.671Z,14.70
2024-01-06T17:31:28.221Z,15.80
2024-01-06T17:33:55.809Z,15.20
2024-01-06T17:36:23.342Z,15.25
2024-01-06T17:38:51.069Z,14.25
2024-01-06T17:41:19.626Z,15.23
2024-01-06T17:43:48.271Z,15.48
2024-01-06T17:46:17.020Z,15.82
2024-01-06T17:48:44.680Z,13.63
2024-01-06T17:51:12.232Z,16.95
2024-01-06T17:53:39.644Z,14.40
2024-01-06T17:56:08.064Z,13.80
2024-01-06T17:58:35.589Z,14.80
2024-01-06T18:01:03.284Z,14.80
2024-01-06T18:03:32.155Z,13.73
2024-01-06T18:05:59.756Z,15.98
2024-01-06T18:08:27.223Z,15.38
2024-01-06T18:10:54.655Z,13.98
2024-01-06T18:13:22.378Z,13.40
2024-01-06T18:15:49.807Z,15.80
2024-01-06T18:18:18.141Z,13.55
2024-01-06T18:20:50.176Z,14.98
2024-01-06T18:23:17.925Z,14.88
2024-01-06T18:25:45.450Z,14.40
2024-01-06T18:28:12.923Z,15.10
2024-01-06T18:30:40.609Z,14.32
2024-01-06T18:33:08.206Z,14.80
2024-01-06T18:35:35.836Z,13.82
2024-01-06T18:38:04.849Z,14.55
2024-01-06T18:40:32.276Z,13.77
2024-01-06T18:42:59.784Z,14.10
2024-01-06T18:45:27.337Z,15.88
2024-01-06T18:47:55.215Z,12.52
2024-01-06T18:50:23.970Z,15.40
2024-01-06T18:52:51.500Z,12.95
2024-01-06T18:55:20.370Z,13.18
2024-01-06T18:57:48.581Z,14.32
2024-01-06T19:00:19.010Z,12.93
2024-01-06T19:02:47.987Z,14.32
2024-01-06T19:05:15.540Z,15.70
2024-01-06T19:07:45.611Z,13.38
2024-01-06T19:10:14.324Z,12.98
2024-01-06T19:12:43.176Z,14.10
2024-01-06T19:15:11.109Z,12.57
2024-01-06T19:17:39.180Z,11.02
2024-01-06T19:20:07.287Z,11.93
2024-01-06T19:22:34.741Z,11.27
2024-01-06T19:25:02.260Z,12.50
2024-01-06T19:27:30.360Z,12.60
2024-01-06T19:29:59.140Z,11.77
2024-01-06T19:32:27.327Z,11.23
2024-01-06T19:34:55.843Z,11.50
2024-01-06T19:37:23.424Z,9.93
2024-01-06T19:39:50.880Z,11.30
2024-01-06T19:42:18.399Z,8.50
2024-01-06T19:44:47.004Z,11.20
2024-01-06T19:47:18.265Z,11.32
2024-01-06T19:49:45.809Z,11.02
2024-01-06T19:52:14.185Z,11.05
2024-01-06T19:54:41.615Z,12.38
2024-01-06T19:57:09.153Z,11.13
2024-01-06T19:59:36.628Z,12.80
2024-01-06T20:02:04.224Z,10.45
2024-01-06T20:04:33.124Z,11.60
2024-01-06T20:07:01.491Z,10.73
2024-01-06T20:09:29.072Z,12.23
2024-01-06T20:11:56.543Z,10.93
2024-01-06T20:14:24.027Z,10.38
2024-01-06T20:16:53.083Z,10.90
2024-01-06T20:19:20.587Z,11.35
2024-01-06T20:21:49.409Z,12.38
2024-01-06T20:24:16.977Z,10.90
2024-01-06T20:26:44.943Z,12.00
2024-01-06T20:29:13.259Z,12.07
2024-01-06T20:31:40.850Z,13.38
2024-01-06T20:34:08.626Z,12.82
2024-01-06T20:36:36.204Z,12.00
2024-01-06T20:39:05.638Z,10.23
2024-01-06T20:41:33.077Z,10.77
2024-01-06T20:44:01.939Z,11.43
2024-01-06T20:46:30.607Z,10.70
2024-01-06T20:48:58.307Z,11.05
2024-01-06T20:51:25.749Z,10.68
2024-01-06T20:53:53.176Z,12.35
2024-01-06T20:56:22.936Z,12.65
2024-01-06T20:58:50.470Z,10.88
2024-01-06T21:01:18.044Z,12.27
2024-01-06T21:03:46.130Z,10.93
2024-01-06T21:06:14.357Z,10.32
2024-01-06T21:08:41.849Z,10.85
2024-01-06T21:11:09.823Z,12.63
2024-01-06T21:13:38.602Z,10.27
2024-01-06T21:16:06.990Z,11.02
2024-01-06T21:18:34.736Z,10.13
2024-01-06T21:21:02.543Z,10.23
2024-01-06T21:23:39.860Z,11.25
2024-01-06T21:26:12.848Z,12.23
2024-01-06T21:28:41.771Z,11.18
2024-01-06T21:31:11.085Z,11.30
2024-01-06T21:33:38.953Z,10.98
2024-01-06T21:36:07.363Z,10.13
2024-01-06T21:38:35.580Z,11.20
2024-01-06T21:41:04.154Z,10.15
2024-01-06T21:43:31.782Z,10.65
2024-01-06T21:46:00.669Z,10.05
2024-01-06T21:48:29.101Z,10.23
2024-01-06T21:50:57.024Z,10.02
2024-01-06T21:53:24.482Z,8.50
2024-01-06T21:55:52.170Z,9.68
2024-01-06T21:58:19.571Z,12.05
2024-01-06T22:00:47.205Z,9.50
2024-01-06T22:03:16.263Z,9.43
2024-01-06T22:05:43.836Z,9.05
2024-01-06T22:08:11.263Z,11.02
2024-01-06T22:10:39.809Z,10.05
2024-01-06T22:13:07.267Z,10.52
2024-01-06T22:15:36.503Z,9.38
2024-01-06T22:18:04.706Z,9.93
2024-01-06T22:20:33.601Z,9.07
2024-01-06T22:23:01.039Z,9.40
2024-01-06T22:25:28.538Z,9.30
2024-01-06T22:27:56.061Z,9.38
2024-01-06T22:30:23.785Z,8.75
2024-01-06T22:32:51.379Z,10.35
2024-01-06T22:35:18.989Z,9.35
2024-01-06T22:37:47.868Z,9.70
2024-01-06T22:40:16.362Z,9.05
2024-01-06T22:42:44.097Z,8.27
2024-01-06T22:45:11.549Z,9.93
2024-01-06T22:47:39.086Z,8.07
2024-01-06T22:50:07.850Z,9.45
2024-01-06T22:52:35.269Z,9.25
2024-01-06T22:55:04.999Z,9.45
2024-01-06T22:57:32.544Z,9.98
2024-01-06T23:00:00.218Z,8.20
2024-01-06T23:02:27.849Z,8.13
2024-01-06T23:04:59.019Z,8.43
2024-01-06T23:07:26.738Z,10.27
2024-01-06T23:09:54.207Z,7.40
2024-01-06T23:12:23.050Z,7.50
2024-01-06T23:14:50.498Z,7.55
2024-01-06T23:17:17.934Z,7.70
2024-01-06T23:19:46.178Z,7.65
2024-01-06T23:22:14.518Z,8.32
2024-01-06T23:24:42.148Z,8.35
2024-01-06T23:27:09.928Z,7.47
2024-01-06T23:29:39.672Z,8.15
2024-01-06T23:32:08.522Z,7.80
2024-01-06T23:34:42.354Z,3.80
2024-01-06T23:37:11.843Z,7.22
2024-01-06T23:39:39.438Z,8.13
2024-01-06T23:42:07.165Z,8.25
2024-01-06T23:44:34.620Z,10.73
2024-01-06T23:47:03.443Z,7.30
2024-01-06T23:49:31.048Z,7.88
2024-01-06T23:51:58.603Z,8.15
2024-01-06T23:54:26.257Z,7.97
2024-01-06T23:56:53.694Z,7.60
2024-01-06T23:59:21.663Z,6.22
